createdAt,value
2019-04-27T00:00:14.657Z,63.50
2019-04-27T00:02:55.823Z,63.50
2019-04-27T00:05:41.290Z,68.25
2019-04-27T00:08:35.076Z,63.80
2019-04-27T00:11:11.649Z,62.48
2019-04-27T00:13:43.742Z,60.48
2019-04-27T00:16:31.343Z,69.37
2019-04-27T00:19:18.460Z,68.22
2019-04-27T00:21:50.406Z,58.55
2019-04-27T00:24:21.156Z,67.22
2019-04-27T00:26:51.685Z,65.22
2019-04-27T00:29:21.803Z,61.25
2019-04-27T00:31:53.416Z,67.82
2019-04-27T00:34:24.383Z,68.62
2019-04-27T00:36:59.330Z,66.42
2019-04-27T00:39:46.857Z,57.03
2019-04-27T00:42:17.481Z,75.55
2019-04-27T00:44:47.710Z,73.25
2019-04-27T00:47:18.239Z,69.80
2019-04-27T00:49:48.767Z,72.12
2019-04-27T00:52:19.091Z,71.92
2019-04-27T00:54:49.415Z,74.47
2019-04-27T00:57:22.865Z,62.38
2019-04-27T01:00:11.363Z,66.62
2019-04-27T01:02:46.192Z,58.65
2019-04-27T01:05:18.155Z,68.25
2019-04-27T01:07:48.479Z,79.58
2019-04-27T01:10:19.417Z,72.80
2019-04-27T01:12:50.151Z,78.55
2019-04-27T01:15:20.680Z,62.40
2019-04-27T01:17:51.208Z,58.38
2019-04-27T01:20:21.928Z,75.40
2019-04-27T01:22:52.065Z,70.40
2019-04-27T01:25:24.227Z,71.00
2019-04-27T01:27:59.644Z,73.15
2019-04-27T01:30:32.657Z,77.87
2019-04-27T01:33:03.186Z,69.07
2019-04-27T01:35:33.511Z,74.05
2019-04-27T01:38:15.980Z,69.45
2019-04-27T01:40:46.246Z,77.10
2019-04-27T01:43:16.585Z,71.77
2019-04-27T01:45:48.737Z,78.42
2019-04-27T01:48:25.883Z,73.15
2019-04-27T01:50:55.524Z,70.85
2019-04-27T01:53:26.462Z,72.53
2019-04-27T01:55:59.055Z,71.47
2019-04-27T01:58:29.304Z,76.37
2019-04-27T02:01:09.532Z,67.47
2019-04-27T02:03:59.048Z,69.25
2019-04-27T02:06:30.363Z,67.47
2019-04-27T02:09:00.765Z,74.42
2019-04-27T02:11:31.091Z,69.80
2019-04-27T02:14:01.414Z,72.20
2019-04-27T02:16:31.739Z,71.35
2019-04-27T02:19:02.061Z,75.12
2019-04-27T02:21:32.386Z,73.83
2019-04-27T02:24:03.214Z,84.90
2019-04-27T02:26:33.441Z,83.20
2019-04-27T02:29:14.622Z,77.58
2019-04-27T02:31:50.035Z,72.50
2019-04-27T02:34:22.236Z,72.78
2019-04-27T02:36:52.560Z,78.35
2019-04-27T02:39:22.878Z,76.50
2019-04-27T02:41:53.202Z,78.50
2019-04-27T02:44:24.960Z,72.12
2019-04-27T02:46:55.285Z,75.45
2019-04-27T02:49:25.825Z,73.67
2019-04-27T02:52:00.852Z,80.75
2019-04-27T02:54:31.783Z,75.75
2019-04-27T02:57:02.312Z,67.12
2019-04-27T02:59:32.830Z,75.42
2019-04-27T03:02:20.781Z,81.00
2019-04-27T03:04:51.511Z,76.15
2019-04-27T03:07:22.039Z,75.17
2019-04-27T03:09:52.776Z,64.42
2019-04-27T03:12:24.734Z,80.92
2019-04-27T03:15:10.323Z,68.07
2019-04-27T03:17:42.384Z,70.70
2019-04-27T03:20:30.537Z,69.92
2019-04-27T03:23:02.485Z,78.45
2019-04-27T03:25:37.108Z,78.07
2019-04-27T03:28:10.713Z,74.45
2019-04-27T03:30:43.006Z,81.30
2019-04-27T03:33:13.203Z,79.58
2019-04-27T03:35:44.358Z,83.07
2019-04-27T03:38:14.871Z,87.15
2019-04-27T03:40:45.199Z,81.90
2019-04-27T03:43:20.256Z,86.37
2019-04-27T03:45:52.478Z,86.67
2019-04-27T03:48:22.514Z,89.83
2019-04-27T03:51:10.168Z,80.05
2019-04-27T03:53:49.718Z,81.30
2019-04-27T03:56:21.953Z,77.12
2019-04-27T03:58:53.916Z,93.60
2019-04-27T04:01:24.240Z,97.88
2019-04-27T04:03:54.766Z,82.35
2019-04-27T04:06:25.500Z,74.72
2019-04-27T04:08:56.032Z,88.30
2019-04-27T04:11:30.286Z,76.22
2019-04-27T04:14:06.919Z,82.10
2019-04-27T04:16:41.544Z,70.37
2019-04-27T04:19:12.166Z,72.97
2019-04-27T04:21:42.392Z,71.05
2019-04-27T04:24:12.924Z,57.10
2019-04-27T04:26:43.247Z,58.15
2019-04-27T04:29:13.982Z,53.40
2019-04-27T04:31:44.099Z,64.62
2019-04-27T04:34:14.628Z,63.63
2019-04-27T04:36:44.951Z,67.75
2019-04-27T04:39:15.278Z,62.17
2019-04-27T04:41:47.246Z,53.17
2019-04-27T04:47:26.806Z,80.35
2019-04-27T04:50:08.578Z,62.48
2019-04-27T04:52:29.531Z,65.78
2019-04-27T04:55:02.699Z,67.20
2019-04-27T04:57:31.778Z,54.67
2019-04-27T05:00:02.104Z,58.52
2019-04-27T05:02:32.636Z,55.00
2019-04-27T05:05:02.952Z,49.77
2019-04-27T05:07:33.276Z,52.43
2019-04-27T05:10:04.215Z,52.23
2019-04-27T05:12:34.531Z,43.02
2019-04-27T05:15:05.676Z,49.80
2019-04-27T05:17:35.681Z,42.23
2019-04-27T05:20:10.022Z,46.50
2019-04-27T05:22:39.342Z,43.40
2019-04-27T05:25:09.337Z,45.52
2019-04-27T05:27:40.798Z,44.55
2019-04-27T05:30:10.689Z,39.30
2019-04-27T05:32:40.551Z,40.65
2019-04-27T05:35:10.463Z,44.38
2019-04-27T05:37:40.356Z,42.88
2019-04-27T05:40:10.239Z,54.05
2019-04-27T05:42:40.127Z,46.73
2019-04-27T05:45:26.673Z,48.35
2019-04-27T05:48:01.092Z,34.88
2019-04-27T05:50:37.756Z,45.98
2019-04-27T05:53:02.663Z,38.85
2019-04-27T05:55:32.521Z,49.75
2019-04-27T05:58:02.343Z,51.15
2019-04-27T06:00:32.321Z,60.25
2019-04-27T06:03:02.229Z,49.42
2019-04-27T06:05:32.587Z,57.67
2019-04-27T06:08:02.523Z,47.45
2019-04-27T06:10:32.412Z,49.67
2019-04-27T06:13:02.405Z,50.67
2019-04-27T06:15:32.362Z,42.03
2019-04-27T06:18:02.259Z,53.15
2019-04-27T06:20:32.378Z,64.42
2019-04-27T06:23:02.272Z,52.05
2019-04-27T06:25:32.263Z,59.93
2019-04-27T06:28:02.274Z,44.65
2019-04-27T06:30:32.460Z,51.23
2019-04-27T06:33:02.340Z,66.95
2019-04-27T06:35:32.282Z,62.58
2019-04-27T06:38:02.305Z,69.92
2019-04-27T06:40:32.209Z,55.92
2019-04-27T06:43:02.148Z,65.08
2019-04-27T06:45:32.286Z,66.60
2019-04-27T06:48:02.815Z,73.37
2019-04-27T06:50:32.933Z,78.80
2019-04-27T06:53:03.262Z,54.98
2019-04-27T06:55:33.991Z,53.13
2019-04-27T06:58:04.314Z,64.92
2019-04-27T07:00:34.843Z,54.45
2019-04-27T07:03:05.167Z,59.88
2019-04-27T07:05:35.490Z,60.67
2019-04-27T07:08:05.605Z,62.38
2019-04-27T07:10:35.729Z,68.05
2019-04-27T07:13:06.074Z,71.00
2019-04-27T07:15:36.375Z,63.38
2019-04-27T07:18:07.108Z,55.55
2019-04-27T07:20:38.756Z,58.63
2019-04-27T07:23:09.485Z,42.55
2019-04-27T07:25:40.129Z,55.03
2019-04-27T07:28:10.471Z,67.03
2019-04-27T07:30:40.776Z,79.80
2019-04-27T07:33:11.101Z,64.55
2019-04-27T07:35:41.423Z,66.37
2019-04-27T07:38:12.951Z,61.83
2019-04-27T07:40:43.704Z,66.20
2019-04-27T07:43:15.468Z,58.25
2019-04-27T07:45:45.586Z,71.22
2019-04-27T07:48:15.969Z,64.07
2019-04-27T07:50:46.438Z,37.88
2019-04-27T07:53:16.762Z,55.80
2019-04-27T07:55:47.281Z,63.68
2019-04-27T07:58:17.410Z,68.78
2019-04-27T08:00:49.482Z,59.38
2019-04-27T08:03:19.900Z,55.50
2019-04-27T08:05:50.224Z,56.58
2019-04-27T08:08:20.551Z,56.25
2019-04-27T08:10:51.283Z,51.20
2019-04-27T08:13:21.181Z,56.42
2019-04-27T08:15:51.199Z,44.55
2019-04-27T08:18:22.857Z,54.33
2019-04-27T08:20:56.906Z,48.75
2019-04-27T08:23:25.938Z,50.67
2019-04-27T08:25:58.882Z,42.13
2019-04-27T08:28:30.553Z,49.20
2019-04-27T08:31:02.065Z,52.35
2019-04-27T08:33:31.989Z,42.67
2019-04-27T08:36:01.811Z,27.77
2019-04-27T08:38:33.147Z,38.85
2019-04-27T08:41:03.563Z,33.10
2019-04-27T08:43:35.732Z,36.90
2019-04-27T08:46:05.873Z,30.30
2019-04-27T08:48:37.012Z,33.25
2019-04-27T08:51:09.278Z,35.70
2019-04-27T08:53:39.818Z,37.83
2019-04-27T08:56:09.983Z,34.70
2019-04-27T08:58:39.885Z,32.25
2019-04-27T09:01:10.417Z,30.77
2019-04-27T09:03:40.431Z,30.08
2019-04-27T09:06:11.871Z,34.92
2019-04-27T09:08:46.390Z,31.77
2019-04-27T09:11:18.660Z,36.10
2019-04-27T09:13:54.244Z,33.78
2019-04-27T09:16:28.825Z,30.68
2019-04-27T09:19:00.596Z,38.28
2019-04-27T09:21:32.192Z,29.60
2019-04-27T09:24:02.210Z,33.42
2019-04-27T09:26:32.219Z,29.42
2019-04-27T09:29:02.273Z,33.13
2019-04-27T09:31:32.162Z,31.00
2019-04-27T09:34:02.045Z,41.55
2019-04-27T09:36:31.871Z,32.75
2019-04-27T09:39:01.921Z,40.15
2019-04-27T09:41:31.763Z,30.27
2019-04-27T09:44:02.958Z,28.62
2019-04-27T09:46:33.280Z,27.90
2019-04-27T09:49:03.817Z,30.82
2019-04-27T09:51:36.265Z,36.88
2019-04-27T09:54:06.095Z,35.40
2019-04-27T09:56:36.343Z,39.90
2019-04-27T09:59:06.488Z,33.70
2019-04-27T10:01:36.959Z,41.15
2019-04-27T10:04:07.005Z,31.77
2019-04-27T10:06:36.950Z,35.52
2019-04-27T10:09:08.221Z,33.70
2019-04-27T10:11:38.043Z,36.25
2019-04-27T10:14:07.885Z,50.25
2019-04-27T10:16:37.726Z,36.13
2019-04-27T10:19:07.683Z,34.10
2019-04-27T10:21:39.785Z,34.43
2019-04-27T10:24:09.739Z,33.40
2019-04-27T10:26:39.641Z,31.37
2019-04-27T10:29:10.999Z,34.90
2019-04-27T10:31:40.833Z,38.42
2019-04-27T10:34:10.806Z,40.23
2019-04-27T10:36:40.838Z,37.83
2019-04-27T10:39:13.544Z,33.10
2019-04-27T10:41:43.727Z,31.25
2019-04-27T10:44:13.580Z,65.97
2019-04-27T10:46:43.611Z,51.80
2019-04-27T10:49:13.527Z,53.00
2019-04-27T10:51:43.438Z,46.23
2019-04-27T10:54:13.331Z,54.27
2019-04-27T10:56:43.409Z,62.62
2019-04-27T10:59:13.412Z,55.12
2019-04-27T11:01:43.369Z,59.65
2019-04-27T11:04:17.898Z,50.35
2019-04-27T11:06:52.414Z,61.70
2019-04-27T11:09:22.449Z,56.68
2019-04-27T11:11:52.463Z,63.55
2019-04-27T11:14:22.302Z,69.80
2019-04-27T11:16:52.215Z,50.35
2019-04-27T11:19:22.264Z,57.05
2019-04-27T11:21:52.417Z,48.55
2019-04-27T11:24:22.423Z,55.17
2019-04-27T11:26:52.281Z,45.63
2019-04-27T11:29:22.109Z,45.63
2019-04-27T11:31:52.167Z,52.80
2019-04-27T11:34:23.639Z,49.08
2019-04-27T11:36:57.599Z,47.30
2019-04-27T11:39:27.486Z,49.95
2019-04-27T11:41:57.453Z,49.25
2019-04-27T11:44:27.315Z,55.52
2019-04-27T11:46:57.161Z,57.20
2019-04-27T11:49:27.138Z,54.23
2019-04-27T11:51:57.067Z,49.18
2019-04-27T11:54:27.550Z,305.12
2019-04-27T11:56:57.796Z,46.18
2019-04-27T11:59:27.801Z,48.00
2019-04-27T12:01:57.748Z,42.85
2019-04-27T12:04:27.581Z,39.58
2019-04-27T12:06:57.545Z,42.27
2019-04-27T12:09:27.374Z,41.48
2019-04-27T12:12:12.381Z,49.25
2019-04-27T12:14:28.859Z,50.90
2019-04-27T12:16:58.776Z,48.17
2019-04-27T12:19:28.596Z,50.15
2019-04-27T12:21:58.468Z,42.62
2019-04-27T12:24:28.450Z,49.03
2019-04-27T12:27:00.003Z,44.58
2019-04-27T12:29:34.421Z,41.28
2019-04-27T12:32:05.629Z,42.43
2019-04-27T12:34:36.125Z,44.33
2019-04-27T12:37:07.297Z,46.45
2019-04-27T12:39:37.221Z,44.45
2019-04-27T12:42:07.158Z,55.12
2019-04-27T12:44:42.178Z,49.53
2019-04-27T12:47:08.691Z,48.15
2019-04-27T12:49:38.705Z,58.17
2019-04-27T12:52:08.595Z,46.63
2019-04-27T12:54:40.199Z,53.60
2019-04-27T12:57:12.019Z,45.70
2019-04-27T12:59:49.243Z,45.67
2019-04-27T13:02:21.954Z,47.75
2019-04-27T13:04:51.893Z,44.73
2019-04-27T13:07:21.898Z,40.30
2019-04-27T13:09:52.012Z,37.65
2019-04-27T13:12:22.173Z,36.73
2019-04-27T13:14:52.141Z,45.55
2019-04-27T13:17:23.544Z,39.33
2019-04-27T13:19:56.081Z,42.58
2019-04-27T13:22:26.269Z,44.03
2019-04-27T13:24:56.613Z,41.80
2019-04-27T13:27:27.036Z,42.40
2019-04-27T13:29:57.619Z,53.28
2019-04-27T13:32:29.120Z,54.00
2019-04-27T13:34:59.385Z,42.73
2019-04-27T13:37:33.982Z,42.75
2019-04-27T13:40:09.498Z,44.55
2019-04-27T13:42:38.176Z,44.33
2019-04-27T13:45:26.621Z,52.10
2019-04-27T13:48:14.244Z,39.98
2019-04-27T13:50:45.827Z,39.73
2019-04-27T13:53:16.758Z,42.40
2019-04-27T13:55:48.458Z,43.05
2019-04-27T13:58:18.436Z,50.65
2019-04-27T14:00:48.352Z,50.92
2019-04-27T14:03:20.868Z,44.73
2019-04-27T14:05:50.042Z,34.80
2019-04-27T14:08:19.949Z,41.77
2019-04-27T14:10:51.408Z,45.43
2019-04-27T14:13:21.444Z,56.20
2019-04-27T14:15:51.677Z,41.18
2019-04-27T14:18:21.778Z,52.10
2019-04-27T14:20:51.806Z,40.80
2019-04-27T14:23:23.382Z,36.88
2019-04-27T14:25:53.351Z,35.85
2019-04-27T14:28:23.244Z,41.10
2019-04-27T14:30:53.251Z,41.40
2019-04-27T14:33:23.273Z,37.00
2019-04-27T14:35:53.124Z,37.17
2019-04-27T14:38:24.018Z,38.70
2019-04-27T14:40:54.299Z,45.95
2019-04-27T14:43:24.110Z,36.83
2019-04-27T14:45:54.065Z,36.33
2019-04-27T14:48:23.996Z,36.85
2019-04-27T14:50:53.837Z,30.25
2019-04-27T14:53:23.803Z,31.95
2019-04-27T14:55:53.708Z,41.83
2019-04-27T14:58:23.623Z,29.98
2019-04-27T15:00:53.627Z,34.33
2019-04-27T15:03:23.550Z,30.37
2019-04-27T15:05:54.137Z,26.97
2019-04-27T15:08:25.617Z,26.12
2019-04-27T15:10:55.584Z,28.07
2019-04-27T15:13:25.459Z,29.55
2019-04-27T15:15:55.493Z,20.97
2019-04-27T15:18:29.595Z,20.82
2019-04-27T15:21:02.401Z,32.13
2019-04-27T15:23:30.887Z,37.78
2019-04-27T15:26:01.785Z,24.30
2019-04-27T15:28:33.361Z,25.40
2019-04-27T15:31:04.837Z,25.10
2019-04-27T15:33:54.659Z,24.50
2019-04-27T15:36:31.149Z,26.62
2019-04-27T15:39:22.495Z,22.15
2019-04-27T15:41:51.972Z,32.48
2019-04-27T15:44:21.902Z,29.45
2019-04-27T15:46:51.831Z,25.43
2019-04-27T15:49:21.964Z,24.72
2019-04-27T15:51:54.876Z,21.15
2019-04-27T15:54:29.076Z,27.75
2019-04-27T15:56:54.822Z,26.30
2019-04-27T15:59:37.199Z,24.95
2019-04-27T16:02:05.617Z,33.83
2019-04-27T16:04:34.622Z,22.30
2019-04-27T16:07:04.676Z,31.93
2019-04-27T16:09:34.609Z,26.27
2019-04-27T16:12:10.710Z,20.43
2019-04-27T16:14:36.481Z,21.90
2019-04-27T16:17:11.435Z,36.70
2019-04-27T16:19:40.669Z,32.60
2019-04-27T16:22:11.129Z,25.40
2019-04-27T16:24:42.300Z,26.12
2019-04-27T16:27:12.213Z,18.52
2019-04-27T16:29:42.248Z,25.35
2019-04-27T16:32:12.279Z,22.62
2019-04-27T16:34:42.291Z,26.07
2019-04-27T16:37:13.963Z,25.77
2019-04-27T16:39:47.207Z,21.65
2019-04-27T16:42:18.630Z,22.15
2019-04-27T16:44:52.936Z,27.73
2019-04-27T16:47:24.265Z,30.32
2019-04-27T16:49:51.725Z,35.05
2019-04-27T16:52:21.726Z,29.72
2019-04-27T16:54:57.031Z,48.17
2019-04-27T16:57:24.749Z,48.05
2019-04-27T16:59:57.514Z,44.15
2019-04-27T17:02:26.090Z,33.80
2019-04-27T17:04:56.035Z,36.93
2019-04-27T17:07:30.200Z,38.15
2019-04-27T17:09:59.494Z,32.60
2019-04-27T17:12:34.386Z,34.43
2019-04-27T17:15:05.750Z,27.62
2019-04-27T17:17:42.729Z,26.97
2019-04-27T17:20:12.993Z,38.08
2019-04-27T17:22:45.581Z,31.50
2019-04-27T17:25:15.431Z,36.83
2019-04-27T17:27:48.246Z,30.48
2019-04-27T17:30:18.920Z,36.35
2019-04-27T17:32:53.988Z,29.92
2019-04-27T17:35:23.987Z,25.48
2019-04-27T17:37:54.421Z,35.78
2019-04-27T17:40:24.483Z,31.62
2019-04-27T17:42:54.413Z,29.55
2019-04-27T17:45:24.509Z,23.90
2019-04-27T17:47:54.343Z,25.23
2019-04-27T17:50:26.273Z,29.00
2019-04-27T17:52:59.062Z,31.87
2019-04-27T17:55:29.285Z,24.60
2019-04-27T17:58:05.356Z,36.38
2019-04-27T18:00:32.905Z,41.30
2019-04-27T18:03:02.910Z,34.10
2019-04-27T18:05:32.910Z,50.35
2019-04-27T18:08:02.931Z,27.52
2019-04-27T18:10:33.033Z,32.35
2019-04-27T18:13:03.107Z,32.23
2019-04-27T18:15:33.137Z,32.88
2019-04-27T18:18:22.872Z,26.17
2019-04-27T18:20:52.109Z,33.25
2019-04-27T18:23:23.768Z,27.42
2019-04-27T18:25:55.268Z,20.57
2019-04-27T18:28:28.390Z,27.48
2019-04-27T18:30:59.905Z,24.27
2019-04-27T18:33:32.658Z,33.30
2019-04-27T18:36:05.425Z,31.70
2019-04-27T18:38:35.483Z,32.83
2019-04-27T18:41:07.995Z,48.70
2019-04-27T18:43:38.454Z,46.33
2019-04-27T18:46:09.066Z,49.58
2019-04-27T18:48:44.760Z,34.92
2019-04-27T18:51:30.279Z,37.83
2019-04-27T18:54:03.555Z,30.15
2019-04-27T18:56:33.483Z,27.73
2019-04-27T18:59:03.454Z,18.20
2019-04-27T19:01:33.462Z,13.13
2019-04-27T19:04:03.370Z,14.25
2019-04-27T19:06:33.425Z,13.25
2019-04-27T19:09:04.965Z,22.45
2019-04-27T19:11:34.973Z,23.22
2019-04-27T19:14:05.061Z,13.80
2019-04-27T19:16:35.075Z,17.65
2019-04-27T19:19:05.680Z,12.55
2019-04-27T19:21:35.688Z,14.78
2019-04-27T19:24:05.563Z,13.32
2019-04-27T19:26:49.210Z,8.85
2019-04-27T19:29:21.342Z,9.30
2019-04-27T19:31:59.072Z,12.25
2019-04-27T19:34:29.385Z,8.65
2019-04-27T19:36:59.719Z,10.58
2019-04-27T19:39:30.453Z,8.75
2019-04-27T19:42:03.743Z,6.45
2019-04-27T19:44:33.763Z,8.98
2019-04-27T19:47:05.857Z,10.20
2019-04-27T19:49:38.698Z,15.15
2019-04-27T19:52:08.820Z,21.35
2019-04-27T19:54:39.848Z,15.95
2019-04-27T19:57:10.296Z,12.10
2019-04-27T19:59:42.057Z,9.03
2019-04-27T20:02:15.541Z,9.78
2019-04-27T20:04:48.037Z,10.82
2019-04-27T20:07:18.515Z,9.53
2019-04-27T20:09:51.342Z,10.58
2019-04-27T20:12:21.659Z,9.35
2019-04-27T20:14:58.128Z,8.90
2019-04-27T20:17:31.195Z,8.00
2019-04-27T20:20:02.668Z,9.95
2019-04-27T20:22:33.401Z,8.30
2019-04-27T20:25:03.993Z,8.90
2019-04-27T20:27:46.026Z,9.73
2019-04-27T20:30:11.109Z,6.70
2019-04-27T20:32:41.863Z,8.75
2019-04-27T20:35:12.187Z,11.15
2019-04-27T20:37:42.717Z,9.23
2019-04-27T20:40:13.349Z,5.70
2019-04-27T20:42:46.537Z,6.80
2019-04-27T20:45:17.168Z,11.83
2019-04-27T20:47:47.508Z,7.78
2019-04-27T20:50:17.844Z,7.67
2019-04-27T20:52:50.881Z,8.73
2019-04-27T20:55:22.605Z,8.58
2019-04-27T20:58:01.652Z,7.03
2019-04-27T21:00:26.695Z,7.92
2019-04-27T21:03:04.461Z,10.60
2019-04-27T21:05:45.770Z,7.92
2019-04-27T21:08:17.735Z,7.62
2019-04-27T21:10:48.262Z,8.68
2019-04-27T21:13:18.673Z,7.37
2019-04-27T21:15:51.036Z,8.73
2019-04-27T21:18:21.894Z,10.95
2019-04-27T21:20:52.662Z,9.10
2019-04-27T21:23:25.819Z,10.32
2019-04-27T21:25:56.352Z,9.58
2019-04-27T21:28:26.877Z,6.72
2019-04-27T21:30:57.198Z,8.33
2019-04-27T21:33:27.727Z,9.40
2019-04-27T21:35:58.667Z,7.42
2019-04-27T21:38:28.992Z,8.53
2019-04-27T21:40:59.517Z,10.05
2019-04-27T21:43:29.846Z,9.00
2019-04-27T21:46:00.173Z,9.85
2019-04-27T21:48:31.278Z,10.25
2019-04-27T21:51:02.245Z,10.95
2019-04-27T21:53:36.666Z,11.00
2019-04-27T21:56:08.628Z,9.03
2019-04-27T21:58:38.954Z,10.70
2019-04-27T22:01:13.040Z,12.60
2019-04-27T22:03:43.490Z,12.15
2019-04-27T22:06:14.223Z,9.48
2019-04-27T22:08:44.741Z,9.35
2019-04-27T22:11:14.871Z,10.53
2019-04-27T22:13:45.200Z,11.45
2019-04-27T22:16:15.724Z,19.35
2019-04-27T22:18:46.460Z,16.97
2019-04-27T22:21:17.193Z,10.93
2019-04-27T22:24:11.231Z,18.57
2019-04-27T22:26:42.209Z,11.08
2019-04-27T22:29:12.942Z,11.93
2019-04-27T22:31:43.470Z,14.03
2019-04-27T22:34:13.590Z,15.58
2019-04-27T22:36:43.913Z,10.98
2019-04-27T22:39:33.889Z,11.65
2019-04-27T22:42:23.235Z,33.92
2019-04-27T22:44:54.822Z,48.60
2019-04-27T22:47:25.146Z,30.52
2019-04-27T22:49:55.674Z,32.42
2019-04-27T22:52:26.203Z,33.60
2019-04-27T22:54:56.526Z,37.65
2019-04-27T22:57:31.297Z,44.58
2019-04-27T23:00:03.707Z,37.65
2019-04-27T23:02:38.356Z,28.98
2019-04-27T23:05:10.824Z,11.10
2019-04-27T23:07:42.071Z,13.90
2019-04-27T23:10:12.748Z,11.53
2019-04-27T23:12:42.924Z,12.05
2019-04-27T23:15:15.091Z,12.93
2019-04-27T23:17:56.269Z,13.60
2019-04-27T23:20:26.897Z,14.63
2019-04-27T23:22:57.121Z,10.38
2019-04-27T23:25:27.444Z,9.53
2019-04-27T23:27:57.768Z,11.30
2019-04-27T23:30:31.213Z,12.63
2019-04-27T23:33:01.492Z,13.43
2019-04-27T23:35:32.947Z,14.68
2019-04-27T23:38:14.862Z,14.28
2019-04-27T23:40:35.122Z,14.58
2019-04-27T23:43:05.446Z,13.50
2019-04-27T23:45:35.974Z,15.50
2019-04-27T23:48:06.505Z,27.52
2019-04-27T23:50:38.465Z,36.40
2019-04-27T23:53:11.833Z,43.00
2019-04-27T23:55:42.594Z,42.35
2019-04-27T23:58:13.327Z,48.05
